Time;durP1;ratioP1;P1;durP2;ratioP2;P2;SDS_P1;SDS_P2;PMS_P1;PMS_P2;Temp;Humidity;BMP_temperature;BMP_pressure;BME280_temperature;BME280_humidity;BME280_pressure;Samples;Min_cycle;Max_cycle;Signal;HPM_P1;HPM_P2
2021/06/16 00:01:42;;;;;;;0.20;0.15;;;16.30;49.00;;;18.73;38.99;101824.56;4991444;28;96927;-71
2021/06/16 00:04:11;;;;;;;3.30;0.35;;;16.30;49.00;;;18.71;39.14;101821.38;4990096;28;97054;-70
2021/06/16 00:06:39;;;;;;;3.15;0.43;;;16.30;49.00;;;18.63;38.84;101821.44;5009479;28;97380;-70
2021/06/16 00:09:08;;;;;;;0.30;0.30;;;16.20;49.00;;;18.59;38.79;101820.50;4989280;28;96802;-70
2021/06/16 00:11:37;;;;;;;16.17;2.08;;;16.20;49.00;;;18.53;39.39;101811.75;4993276;28;97054;-71
2021/06/16 00:14:07;;;;;;;0.10;0.10;;;16.10;49.00;;;18.53;39.35;101813.69;4988815;28;98209;-70
2021/06/16 00:16:37;;;;;;;0.30;0.30;;;16.10;49.10;;;18.49;39.65;101810.03;4989580;28;97856;-71
2021/06/16 00:19:05;;;;;;;1.15;0.65;;;16.10;49.20;;;18.40;39.76;101806.56;4989918;28;98210;-70
2021/06/16 00:21:34;;;;;;;0.25;0.25;;;16.10;49.30;;;18.31;39.75;101817.44;5007594;28;96960;-71
2021/06/16 00:24:05;;;;;;;0.88;0.70;;;16.00;49.20;;;18.27;39.03;101813.78;4991051;28;97407;-70
2021/06/16 00:26:33;;;;;;;0.40;0.40;;;16.00;49.20;;;18.22;39.72;101811.25;4988999;28;97782;-70
2021/06/16 00:29:03;;;;;;;0.35;0.10;;;16.00;49.30;;;18.25;39.05;101796.25;4987484;28;97246;-70
2021/06/16 00:31:32;;;;;;;0.20;0.17;;;15.90;49.20;;;18.22;39.62;101803.09;4991777;28;96948;-70
2021/06/16 00:34:03;;;;;;;0.15;0.15;;;15.90;49.30;;;18.17;39.36;101808.72;4994187;28;97017;-70
2021/06/16 00:36:32;;;;;;;0.10;0.10;;;15.90;49.30;;;18.11;39.40;101809.22;4991321;28;97390;-70
2021/06/16 00:39:01;;;;;;;0.40;0.40;;;15.80;49.30;;;18.11;39.37;101806.50;4994013;28;96790;-70
2021/06/16 00:41:31;;;;;;;0.20;0.20;;;15.80;49.40;;;18.08;40.14;101807.97;4990792;28;100116;-70
2021/06/16 00:44:00;;;;;;;0.25;0.25;;;15.80;49.50;;;18.05;39.28;101808.63;4998399;28;96909;-70
2021/06/16 00:46:31;;;;;;;0.80;0.80;;;15.70;49.50;;;18.11;39.39;101807.31;4991560;28;96916;-70
2021/06/16 00:49:00;;;;;;;1.70;1.15;;;15.70;49.50;;;18.09;39.10;101814.97;4997556;28;97651;-70
2021/06/16 00:51:31;;;;;;;0.30;0.30;;;15.70;49.60;;;18.08;39.43;101813.38;5004372;28;96875;-71
2021/06/16 00:54:00;;;;;;;0.17;0.17;;;15.70;49.60;;;18.04;39.85;101808.94;4988380;28;97031;-70
2021/06/16 00:56:31;;;;;;;3.17;0.95;;;15.60;49.50;;;17.98;39.88;101805.59;4989384;28;98278;-70
2021/06/16 00:59:00;;;;;;;0.10;0.10;;;15.60;49.60;;;17.97;39.64;101809.41;5010785;28;97922;-70
2021/06/16 01:01:31;;;;;;;0.10;0.10;;;15.50;49.50;;;17.94;39.98;101801.94;4990319;28;96763;-70
2021/06/16 01:04:10;;;;;;;0.10;0.10;;;15.50;49.70;;;17.94;39.88;101801.16;4994265;28;97896;-71
2021/06/16 01:06:49;;;;;;;1.02;0.55;;;15.50;49.80;;;17.85;40.22;101795.75;4996353;28;97867;-70
2021/06/16 01:09:20;;;;;;;0.20;0.20;;;15.50;49.80;;;17.84;40.12;101791.47;4989136;28;97498;-70
2021/06/16 01:12:09;;;;;;;0.10;0.10;;;15.40;49.70;;;17.85;39.05;101800.38;4990929;28;97118;-70
2021/06/16 01:14:49;;;;;;;1.05;0.60;;;15.40;49.90;;;17.75;39.45;101803.44;4989742;28;96928;-70
2021/06/16 01:17:26;;;;;;;0.88;0.25;;;15.40;49.80;;;17.78;39.29;101798.19;5002720;28;98035;-70
2021/06/16 01:20:28;;;;;;;4.00;0.17;;;15.30;49.80;;;17.71;39.30;101797.06;4989727;28;97454;-70
2021/06/16 01:23:33;;;;;;;0.75;0.45;;;15.30;50.00;;;17.57;39.88;101799.19;4990801;28;97188;-70
2021/06/16 01:26:23;;;;;;;0.98;0.85;;;15.20;49.90;;;17.65;39.62;101796.44;4993846;28;97176;-70
2021/06/16 01:29:00;;;;;;;0.10;0.10;;;15.20;50.00;;;17.60;40.15;101795.84;4990843;28;97929;-70
2021/06/16 01:31:32;;;;;;;0.50;0.50;;;15.20;50.00;;;17.57;40.04;101797.28;4990351;28;97722;-70
2021/06/16 01:34:04;;;;;;;0.20;0.20;;;15.20;50.00;;;17.56;39.49;101792.97;4990335;28;96878;-70
2021/06/16 01:36:39;;;;;;;0.22;0.22;;;15.10;50.10;;;17.58;39.57;101793.44;5005340;28;96864;-70
2021/06/16 01:39:10;;;;;;;0.20;0.20;;;15.10;50.10;;;17.54;39.83;101786.25;4993651;28;96827;-70
2021/06/16 01:41:43;;;;;;;0.45;0.45;;;15.10;50.10;;;17.42;39.39;101784.25;4990519;28;97742;-70
2021/06/16 01:44:14;;;;;;;0.47;0.43;;;15.00;50.10;;;17.37;39.71;101787.09;5008971;28;97245;-70
2021/06/16 01:46:45;;;;;;;0.25;0.25;;;15.00;50.10;;;17.41;40.04;101782.66;4994759;28;96954;-70
2021/06/16 01:49:18;;;;;;;0.20;0.20;;;15.00;50.20;;;17.43;40.30;101775.00;4996414;28;97809;-70
2021/06/16 01:51:47;;;;;;;0.20;0.20;;;14.90;50.20;;;17.40;40.41;101770.19;4996266;28;97051;-70
2021/06/16 01:54:18;;;;;;;0.95;0.68;;;14.90;50.30;;;17.36;39.89;101769.25;4994913;28;96903;-71
2021/06/16 01:56:50;;;;;;;0.10;0.10;;;14.90;50.30;;;17.35;40.22;101770.38;4989730;28;97018;-70
2021/06/16 01:59:22;;;;;;;0.30;0.30;;;14.80;50.20;;;17.33;39.52;101772.59;4988044;28;97280;-70
2021/06/16 02:01:52;;;;;;;0.55;0.35;;;14.80;50.30;;;17.30;39.86;101775.91;4993386;28;97575;-70
2021/06/16 02:04:21;;;;;;;1.30;0.88;;;14.80;50.30;;;17.24;39.59;101770.97;4991309;28;96866;-70
2021/06/16 02:07:00;;;;;;;0.15;0.15;;;14.70;50.40;;;17.19;39.85;101778.50;4996739;28;97800;-70
2021/06/16 02:09:32;;;;;;;1.08;0.60;;;14.70;50.40;;;17.16;39.63;101779.13;4993147;28;97856;-70
2021/06/16 02:12:08;;;;;;;0.10;0.10;;;14.70;50.40;;;17.13;39.73;101771.66;4994719;28;98704;-70
2021/06/16 02:14:41;;;;;;;0.65;0.52;;;14.70;50.40;;;17.12;40.59;101770.84;4988570;28;97364;-70
2021/06/16 02:17:15;;;;;;;0.17;0.17;;;14.60;50.40;;;17.06;39.89;101769.41;4989020;28;97155;-70
2021/06/16 02:19:48;;;;;;;0.20;0.20;;;14.60;50.50;;;17.03;40.24;101766.53;5008714;28;97876;-70
2021/06/16 02:22:17;;;;;;;0.25;0.25;;;14.60;50.50;;;17.05;40.56;101770.53;4993722;28;97518;-70
2021/06/16 02:24:47;;;;;;;0.45;0.43;;;14.50;50.50;;;17.01;40.21;101769.59;4995322;28;96974;-70
2021/06/16 02:27:17;;;;;;;0.63;0.63;;;14.50;50.50;;;16.98;39.78;101767.53;5004139;28;96920;-70
2021/06/16 02:29:46;;;;;;;3.35;0.35;;;14.50;50.60;;;16.92;40.52;101759.88;4991120;28;99513;-70
2021/06/16 02:32:15;;;;;;;0.20;0.20;;;14.40;50.60;;;16.88;40.42;101764.34;4994617;28;97938;-70
2021/06/16 02:34:44;;;;;;;0.13;0.13;;;14.50;50.60;;;16.84;39.98;101756.03;4992573;28;96941;-70
2021/06/16 02:37:17;;;;;;;0.52;0.47;;;14.40;50.70;;;16.81;40.83;101750.44;4994742;28;97086;-70
2021/06/16 02:39:56;;;;;;;0.43;0.38;;;14.40;50.70;;;16.78;40.21;101748.38;5003199;28;100483;-70
2021/06/16 02:42:28;;;;;;;10.07;0.57;;;14.40;50.70;;;16.73;40.34;101748.53;4997255;28;98991;-70
2021/06/16 02:44:58;;;;;;;0.68;0.28;;;14.40;50.80;;;16.74;40.14;101750.94;4995709;28;97355;-70
2021/06/16 02:47:28;;;;;;;0.05;0.05;;;14.30;50.70;;;16.75;40.73;101746.31;4991297;28;97389;-70
2021/06/16 02:50:00;;;;;;;0.45;0.45;;;14.30;50.70;;;16.72;39.96;101744.25;4991476;28;98085;-70
2021/06/16 02:52:35;;;;;;;0.00;0.00;;;14.30;50.80;;;16.63;40.68;101743.47;4994475;28;97866;-70
2021/06/16 02:55:07;;;;;;;0.10;0.10;;;14.30;50.90;;;16.68;40.79;101737.88;4989601;28;96911;-70
2021/06/16 02:57:43;;;;;;;0.17;0.17;;;14.30;50.90;;;16.68;40.51;101738.69;4990535;28;96799;-70
2021/06/16 03:00:17;;;;;;;0.30;0.30;;;14.30;50.90;;;16.69;40.09;101740.28;4993489;28;98495;-70
2021/06/16 03:02:47;;;;;;;;;;;14.20;50.90;;;16.64;40.65;101739.63;4990986;28;97347;-70
2021/06/16 03:05:22;;;;;;;2.10;0.95;;;14.20;51.10;;;16.61;40.45;101734.88;4991159;28;96883;-70
2021/06/16 03:07:56;;;;;;;0.15;0.15;;;14.20;51.00;;;16.59;41.10;101732.47;4992149;28;97260;-70
2021/06/16 03:10:29;;;;;;;0.17;0.17;;;14.20;50.90;;;16.61;41.04;101738.34;4986337;28;97889;-70
2021/06/16 03:13:01;;;;;;;1.00;0.80;;;14.20;51.00;;;16.64;41.10;101736.94;4993235;28;97696;-70
2021/06/16 03:15:34;;;;;;;0.08;0.08;;;14.20;51.00;;;16.66;40.97;101737.41;4991738;28;96825;-70
2021/06/16 03:18:06;;;;;;;3.35;1.00;;;14.20;51.00;;;16.62;40.66;101733.75;4991992;28;96915;-70
2021/06/16 03:20:37;;;;;;;0.20;0.20;;;14.20;51.10;;;16.68;40.64;101735.19;4992632;28;97758;-70
2021/06/16 03:23:08;;;;;;;0.40;0.40;;;14.20;51.10;;;16.74;40.72;101736.59;4996259;28;98065;-70
2021/06/16 03:25:39;;;;;;;0.15;0.15;;;14.20;51.00;;;16.74;39.84;101737.41;4991663;28;96758;-70
2021/06/16 03:28:09;;;;;;;0.90;0.70;;;14.20;51.00;;;16.75;39.96;101740.91;5000299;28;96919;-70
2021/06/16 03:30:41;;;;;;;0.32;0.32;;;14.20;51.00;;;16.80;40.21;101740.75;4987854;28;97991;-70
2021/06/16 03:33:10;;;;;;;0.52;0.52;;;14.20;51.00;;;16.83;40.71;101735.50;4993405;28;97859;-70
2021/06/16 03:35:39;;;;;;;2.25;0.90;;;14.20;51.00;;;16.86;40.85;101736.78;4985735;28;97130;-70
2021/06/16 03:38:09;;;;;;;0.13;0.13;;;14.30;51.00;;;16.88;39.83;101734.56;4996516;28;97516;-70
2021/06/16 03:40:40;;;;;;;0.30;0.30;;;14.20;51.00;;;16.90;40.85;101733.09;4989537;28;97848;-70
2021/06/16 03:43:12;;;;;;;0.20;0.20;;;14.30;51.00;;;16.91;40.40;101726.56;4993336;28;97715;-70
2021/06/16 03:45:44;;;;;;;0.20;0.20;;;14.30;51.00;;;16.95;40.76;101724.03;4991833;28;99743;-70
2021/06/16 03:48:19;;;;;;;3.72;0.82;;;14.30;51.00;;;16.97;39.83;101725.31;4994531;28;96882;-70
2021/06/16 03:50:51;;;;;;;11.90;0.40;;;14.30;50.90;;;16.95;39.69;101730.22;4991278;28;97977;-70
2021/06/16 03:53:21;;;;;;;0.57;0.43;;;14.40;51.00;;;17.06;39.63;101723.38;4991049;28;97631;-70
2021/06/16 03:55:52;;;;;;;1.38;0.55;;;14.40;50.90;;;17.08;40.55;101733.88;4997760;28;96929;-70
2021/06/16 03:58:22;;;;;;;0.13;0.13;;;14.40;50.90;;;17.10;39.97;101723.53;4993410;28;97135;-70
2021/06/16 04:00:52;;;;;;;0.57;0.57;;;14.40;50.90;;;17.18;39.72;101722.75;4994978;28;98115;-70
2021/06/16 04:03:22;;;;;;;0.20;0.20;;;14.50;50.90;;;17.20;40.21;101724.00;4991359;28;97794;-70
2021/06/16 04:05:51;;;;;;;0.50;0.50;;;14.50;50.80;;;17.28;40.31;101723.97;4995231;28;96923;-70
2021/06/16 04:08:21;;;;;;;0.25;0.20;;;14.60;50.80;;;17.31;39.84;101714.44;4991510;28;97548;-70
2021/06/16 04:10:54;;;;;;;2.17;1.17;;;14.60;50.80;;;17.34;40.45;101720.00;4990571;28;97889;-70
2021/06/16 04:13:24;;;;;;;0.52;0.52;;;14.70;50.80;;;17.39;39.48;101713.63;4989566;28;97997;-70
2021/06/16 04:15:52;;;;;;;0.47;0.35;;;14.70;50.70;;;17.40;39.30;101710.59;4992760;28;96775;-70
2021/06/16 04:18:22;;;;;;;0.17;0.17;;;14.80;50.70;;;17.42;39.53;101705.66;4991901;28;96943;-70
2021/06/16 04:20:55;;;;;;;1.20;1.10;;;14.80;50.70;;;17.44;40.40;101714.25;4991124;28;98242;-70
2021/06/16 04:23:24;;;;;;;0.40;0.40;;;14.80;50.80;;;17.47;40.42;101710.91;5006330;28;97715;-70
2021/06/16 04:25:53;;;;;;;0.15;0.15;;;14.80;50.70;;;17.53;40.44;101708.78;4992405;28;97682;-69
2021/06/16 04:28:23;;;;;;;1.17;0.75;;;14.90;50.80;;;17.57;39.67;101701.63;4997471;28;97416;-70
2021/06/16 04:30:52;;;;;;;0.25;0.25;;;14.90;50.80;;;17.62;40.09;101696.03;4990570;28;97426;-70
2021/06/16 04:33:21;;;;;;;0.50;0.50;;;14.90;50.80;;;17.64;39.47;101699.22;4991446;28;97012;-70
2021/06/16 04:35:50;;;;;;;0.10;0.10;;;15.00;50.80;;;17.65;40.33;101700.78;4990105;28;96731;-70
2021/06/16 04:38:18;;;;;;;0.68;0.68;;;14.90;50.80;;;17.67;39.58;101693.91;4991950;28;97136;-70
2021/06/16 04:40:47;;;;;;;4.30;0.65;;;15.00;50.80;;;17.70;39.61;101693.25;4990681;28;99564;-70
2021/06/16 04:43:16;;;;;;;0.22;0.22;;;15.00;50.80;;;17.72;40.21;101698.38;4989219;28;96966;-70
2021/06/16 04:45:46;;;;;;;0.32;0.30;;;15.00;50.80;;;17.77;39.53;101699.00;4991530;28;96821;-70
2021/06/16 04:48:15;;;;;;;0.57;0.43;;;15.00;50.80;;;17.87;39.67;101698.63;4988885;28;96663;-70
2021/06/16 04:50:44;;;;;;;0.57;0.57;;;15.10;50.90;;;17.92;39.71;101703.84;4987931;28;97844;-70
2021/06/16 04:53:12;;;;;;;0.28;0.28;;;15.10;50.80;;;17.96;39.88;101702.06;4991300;28;97608;-70
2021/06/16 04:55:41;;;;;;;1.08;0.45;;;15.20;50.80;;;18.00;39.75;101692.16;4991825;28;97874;-70
2021/06/16 04:58:10;;;;;;;1.02;0.15;;;15.20;50.80;;;18.07;40.12;101692.44;4990626;28;97088;-70
2021/06/16 05:00:39;;;;;;;0.38;0.38;;;15.30;50.80;;;18.11;39.30;101693.38;4986297;28;96924;-70
2021/06/16 05:03:10;;;;;;;0.28;0.28;;;15.30;50.80;;;18.17;39.16;101686.63;4990531;28;97678;-70
2021/06/16 05:05:39;;;;;;;0.30;0.30;;;15.40;50.80;;;18.23;39.12;101681.81;4993609;28;96694;-70
2021/06/16 05:08:08;;;;;;;3.13;2.40;;;15.40;50.80;;;18.25;39.93;101671.44;4997003;28;96875;-70
2021/06/16 05:10:37;;;;;;;8.63;0.40;;;15.50;50.90;;;18.30;39.19;101679.41;4989248;28;97141;-70
2021/06/16 05:13:05;;;;;;;0.30;0.30;;;15.50;50.80;;;18.41;39.98;101678.69;4992633;28;96774;-70
2021/06/16 05:15:34;;;;;;;0.20;0.20;;;15.50;50.80;;;18.47;39.35;101674.66;4994216;28;97180;-70
2021/06/16 05:18:08;;;;;;;3.22;0.85;;;15.60;50.80;;;18.56;39.38;101674.59;4995851;28;96872;-70
2021/06/16 05:20:38;;;;;;;0.50;0.40;;;15.70;50.90;;;18.64;39.65;101674.53;4990984;28;96961;-70
2021/06/16 05:23:06;;;;;;;0.15;0.15;;;15.70;50.70;;;18.73;39.67;101664.38;4995431;28;97734;-70
2021/06/16 05:25:35;;;;;;;0.35;0.35;;;15.80;50.70;;;18.90;39.21;101663.41;4977434;28;96880;-70
2021/06/16 05:28:05;;;;;;;10.23;0.88;;;15.90;50.70;;;19.11;39.14;101671.19;4993369;28;97295;-70
2021/06/16 05:30:33;;;;;;;1.08;0.85;;;16.10;50.70;;;19.51;38.55;101663.22;4992588;28;97950;-70
2021/06/16 05:33:05;;;;;;;0.57;0.52;;;17.30;50.10;;;19.94;38.53;101669.69;4991586;28;97689;-70
2021/06/16 05:35:34;;;;;;;0.20;0.20;;;17.80;48.50;;;20.59;37.86;101666.66;5010540;28;97528;-70
2021/06/16 05:38:06;;;;;;;0.28;0.28;;;18.30;48.30;;;21.13;36.98;101670.50;4991754;28;97306;-70
2021/06/16 05:40:35;;;;;;;0.43;0.40;;;18.70;48.30;;;21.81;36.84;101661.75;5010479;28;97888;-71
2021/06/16 05:43:05;;;;;;;0.63;0.32;;;19.50;47.90;;;23.32;35.40;101663.78;4987748;28;98010;-71
2021/06/16 05:45:34;;;;;;;11.15;0.57;;;19.80;47.70;;;24.46;34.55;101655.78;4999638;28;96889;-71
2021/06/16 05:48:06;;;;;;;1.95;1.45;;;20.40;47.50;;;26.31;32.60;101645.72;4997469;28;97069;-71
2021/06/16 05:50:34;;;;;;;0.28;0.28;;;22.40;46.30;;;29.00;29.05;101646.44;4993869;28;97117;-71
2021/06/16 05:53:10;;;;;;;1.75;1.08;;;24.40;44.30;;;30.48;27.84;101647.44;4989807;28;99550;-71
2021/06/16 05:55:39;;;;;;;0.35;0.35;;;25.30;43.20;;;30.06;29.29;101658.22;4988584;28;97494;-71
2021/06/16 05:58:08;;;;;;;3.45;1.60;;;26.00;43.20;;;30.07;30.43;101645.97;4992809;28;97674;-71
2021/06/16 06:00:37;;;;;;;1.00;0.90;;;28.00;42.50;;;30.97;30.64;101642.03;4991773;28;97192;-71
2021/06/16 06:03:09;;;;;;;;;;;30.30;41.10;;;31.37;31.68;101648.56;4994357;28;98085;-72
2021/06/16 06:05:38;;;;;;;0.30;0.25;;;32.30;39.90;;;33.94;29.98;101630.31;4994207;28;97209;-72
2021/06/16 06:08:08;;;;;;;0.43;0.17;;;34.10;39.10;;;37.89;26.06;101623.31;4992246;28;97469;-72
2021/06/16 06:10:37;;;;;;;0.68;0.68;;;35.60;38.80;;;39.70;24.41;101622.13;4988197;28;97895;-72
2021/06/16 06:13:06;;;;;;;2.63;1.25;;;36.60;38.60;;;41.43;23.70;101618.41;4997042;28;97826;-72
2021/06/16 06:15:35;;;;;;;3.20;0.60;;;37.70;38.70;;;42.58;23.24;101604.81;4992464;28;97942;-73
2021/06/16 06:18:05;;;;;;;3.47;1.02;;;38.50;38.50;;;43.71;22.55;101604.44;4989272;28;97081;-73
2021/06/16 06:20:34;;;;;;;0.32;0.32;;;39.40;38.60;;;44.99;22.04;101607.59;5006632;28;97859;-73
2021/06/16 06:23:05;;;;;;;0.40;0.40;;;40.30;38.60;;;46.08;21.82;101600.63;4988860;28;97739;-73
2021/06/16 06:25:36;;;;;;;1.02;0.68;;;41.20;38.70;;;47.13;22.07;101595.53;5006878;28;97157;-73
2021/06/16 06:28:06;;;;;;;0.57;0.55;;;42.10;38.70;;;47.99;21.12;101593.34;4991312;28;97194;-74
2021/06/16 06:30:35;;;;;;;0.30;0.30;;;42.90;38.60;;;48.53;21.11;101598.09;4993051;28;98029;-70
2021/06/16 06:33:06;;;;;;;1.58;0.40;;;43.50;38.60;;;49.09;21.23;101590.06;4989552;28;97735;-71
2021/06/16 06:35:35;;;;;;;2.23;0.83;;;43.90;38.60;;;49.56;21.36;101564.44;4989316;28;99559;-71
2021/06/16 06:38:05;;;;;;;0.30;0.30;;;44.30;38.60;;;50.24;20.80;101469.66;4991017;28;96920;-71
2021/06/16 06:40:35;;;;;;;3.50;1.13;;;44.90;38.70;;;50.69;20.86;101458.53;4993808;28;97850;-71
2021/06/16 06:43:07;;;;;;;0.40;0.40;;;45.40;38.60;;;51.35;20.55;101447.94;4994974;28;97928;-71
2021/06/16 06:45:36;;;;;;;0.80;0.73;;;45.80;38.50;;;51.81;20.31;101446.66;4994776;28;96907;-71
2021/06/16 06:48:06;;;;;;;1.38;0.32;;;46.20;38.60;;;52.50;20.23;101433.19;4994414;28;96812;-71
2021/06/16 06:50:34;;;;;;;3.40;0.70;;;46.80;38.60;;;53.13;20.10;101431.78;4995771;28;98144;-71
2021/06/16 06:53:05;;;;;;;0.30;0.30;;;47.20;38.60;;;53.89;19.76;101535.28;4991889;28;96925;-71
2021/06/16 06:55:37;;;;;;;5.45;0.88;;;47.60;38.50;;;54.42;18.98;101554.34;4991773;28;97080;-72
2021/06/16 06:58:05;;;;;;;0.30;0.30;;;48.00;38.30;;;54.70;19.14;101551.00;4997317;28;97901;-72
2021/06/16 07:00:34;;;;;;;1.88;0.95;;;48.30;38.40;;;54.97;19.14;101511.59;4993613;28;97883;-72
2021/06/16 07:03:05;;;;;;;1.35;0.47;;;48.60;38.40;;;55.20;18.83;101419.31;4994775;28;96844;-72
2021/06/16 07:05:34;;;;;;;1.20;0.67;;;48.80;38.40;;;55.49;19.06;101425.94;4990422;28;97179;-73
2021/06/16 07:08:06;;;;;;;0.40;0.40;;;48.90;38.40;;;55.63;19.16;101415.56;4995348;28;97678;-72
2021/06/16 07:10:36;;;;;;;0.80;0.30;;;49.00;38.40;;;55.44;19.41;101432.75;4990131;28;96931;-71
2021/06/16 07:13:05;;;;;;;0.70;0.50;;;49.10;38.40;;;55.72;18.90;101444.38;4991401;28;96847;-69
2021/06/16 07:15:34;;;;;;;0.63;0.40;;;49.00;38.60;;;56.14;18.27;101445.50;4993401;28;96793;-69
2021/06/16 07:18:05;;;;;;;1.10;1.00;;;49.00;38.60;;;56.43;18.66;101457.06;4991620;28;97467;-69
2021/06/16 07:20:34;;;;;;;1.08;0.63;;;49.20;38.60;;;56.65;18.18;101468.13;4990956;28;97897;-70
2021/06/16 07:23:05;;;;;;;2.63;0.35;;;49.30;38.60;;;56.60;18.10;101463.44;4993235;28;97693;-70
2021/06/16 07:25:33;;;;;;;1.25;0.50;;;49.40;38.70;;;56.68;17.79;101472.69;4991629;28;96813;-70
2021/06/16 07:28:05;;;;;;;0.40;0.28;;;49.20;38.60;;;56.47;18.53;101477.53;4992694;28;96841;-70
2021/06/16 07:30:35;;;;;;;6.43;1.55;;;49.10;38.60;;;56.66;18.14;101471.78;4994407;28;97859;-69
2021/06/16 07:33:05;;;;;;;3.30;0.50;;;48.90;38.80;;;56.88;17.24;101479.94;4993501;28;98746;-69
2021/06/16 07:35:34;;;;;;;0.57;0.40;;;48.90;38.70;;;57.35;17.20;101481.94;4993107;28;98300;-70
2021/06/16 07:38:05;;;;;;;0.55;0.55;;;48.90;38.80;;;57.65;16.71;101477.59;4994110;28;96914;-70
2021/06/16 07:40:34;;;;;;;0.52;0.20;;;48.90;38.70;;;57.51;16.75;101482.34;4994691;28;96745;-71
2021/06/16 07:43:06;;;;;;;4.38;0.30;;;48.80;38.70;;;57.43;16.63;101479.66;4994940;28;97671;-70
2021/06/16 07:45:35;;;;;;;0.35;0.35;;;48.60;38.80;;;57.62;16.07;101482.44;4989883;28;98233;-71
2021/06/16 07:48:05;;;;;;;3.35;0.93;;;48.40;39.00;;;57.76;15.87;101480.59;4993063;28;96832;-70
2021/06/16 07:50:36;;;;;;;3.10;1.20;;;48.30;39.00;;;57.45;16.09;101491.34;4993824;28;97902;-70
2021/06/16 07:53:08;;;;;;;5.18;0.38;;;48.10;39.10;;;57.25;16.34;101495.66;4989620;28;97176;-69
2021/06/16 07:55:39;;;;;;;6.55;0.63;;;47.80;39.20;;;57.22;16.03;101484.59;5006039;28;97342;-69
2021/06/16 07:58:10;;;;;;;0.52;0.52;;;47.70;39.40;;;57.39;15.67;101490.91;4993624;28;96954;-69
2021/06/16 08:00:39;;;;;;;0.20;0.20;;;47.60;39.60;;;57.42;15.50;101489.69;4988120;28;96999;-68
2021/06/16 08:03:08;;;;;;;0.80;0.45;;;47.60;39.60;;;57.48;15.56;101481.47;4989882;28;99075;-69
2021/06/16 08:05:36;;;;;;;0.25;0.22;;;47.50;39.60;;;57.36;15.69;101471.94;4989083;28;97165;-69
2021/06/16 08:08:07;;;;;;;36.63;1.25;;;47.40;39.70;;;56.92;15.52;101473.75;4991175;28;96723;-69
2021/06/16 08:10:36;;;;;;;4.88;1.17;;;47.20;39.80;;;56.94;15.43;101482.53;4987850;28;97978;-69
2021/06/16 08:13:08;;;;;;;1.83;0.90;;;47.00;40.00;;;57.60;14.55;101472.91;4987263;28;96932;-69
2021/06/16 08:15:37;;;;;;;2.47;0.82;;;46.90;39.80;;;57.96;14.57;101484.09;4988832;28;96811;-69
2021/06/16 08:18:06;;;;;;;26.30;1.23;;;46.90;39.80;;;57.82;14.55;101478.13;4993867;28;96805;-69
2021/06/16 08:20:37;;;;;;;0.28;0.28;;;46.90;39.90;;;57.72;14.43;101470.84;4990240;28;97948;-69
2021/06/16 08:23:06;;;;;;;0.90;0.55;;;46.90;40.00;;;57.50;14.74;101466.41;4993700;28;96827;-69
2021/06/16 08:25:36;;;;;;;0.50;0.40;;;46.70;39.90;;;57.21;15.01;101469.41;4989490;28;97710;-69
2021/06/16 08:28:06;;;;;;;31.63;0.65;;;46.50;39.90;;;57.29;14.44;101451.94;4990589;28;96966;-69
2021/06/16 08:30:36;;;;;;;1.80;0.65;;;46.20;40.00;;;57.35;14.55;101455.97;4985677;28;97908;-72
2021/06/16 08:33:10;;;;;;;0.43;0.20;;;46.10;40.20;;;57.08;14.83;101457.59;4985914;28;96770;-72
2021/06/16 08:35:39;;;;;;;2.15;0.30;;;45.90;40.10;;;56.78;15.29;101447.50;5005732;28;96743;-72
2021/06/16 08:38:08;;;;;;;4.05;0.70;;;45.70;40.20;;;56.67;15.26;101445.22;5004374;28;97600;-72
2021/06/16 08:40:37;;;;;;;0.25;0.25;;;45.50;40.40;;;56.43;15.61;101440.53;4990097;28;98083;-72
2021/06/16 08:43:06;;;;;;;4.78;0.77;;;45.40;40.40;;;56.26;15.69;101437.03;4992812;28;97572;-72
2021/06/16 08:45:40;;;;;;;17.10;1.40;;;45.30;40.50;;;56.08;16.23;101433.53;4988347;28;99718;-72
2021/06/16 08:48:10;;;;;;;0.38;0.38;;;45.10;40.40;;;55.65;16.79;101424.34;4987316;28;96962;-72
2021/06/16 08:50:39;;;;;;;10.02;0.45;;;44.90;40.60;;;55.07;16.89;101431.91;4988907;28;97937;-72
2021/06/16 08:53:07;;;;;;;0.28;0.17;;;44.60;40.60;;;54.71;17.56;101428.22;4993485;28;97384;-72
2021/06/16 08:55:36;;;;;;;1.45;0.32;;;44.30;40.80;;;54.28;17.63;101421.06;4993920;28;97080;-72
2021/06/16 08:58:05;;;;;;;0.20;0.20;;;44.10;41.00;;;53.77;17.95;101425.97;4991796;28;96785;-72
2021/06/16 09:00:34;;;;;;;18.75;0.68;;;43.80;41.00;;;53.51;18.32;101423.69;4991513;28;97067;-72
2021/06/16 09:03:06;;;;;;;1.35;0.13;;;43.50;41.10;;;53.32;18.38;101420.59;4998264;28;97891;-73
2021/06/16 09:05:40;;;;;;;;;;;43.30;41.20;;;53.23;18.85;101429.03;4992019;28;96958;-72
2021/06/16 09:08:18;;;;;;;1.00;0.65;;;43.20;41.20;;;53.10;19.11;101432.94;4996288;28;96828;-72
2021/06/16 09:10:51;;;;;;;0.47;0.47;;;43.00;41.90;;;52.73;19.51;101416.69;4990357;28;97595;-72
2021/06/16 09:13:31;;;;;;;0.00;0.00;;;42.90;41.50;;;52.09;20.04;101418.59;5010059;28;97786;-72
2021/06/16 09:16:03;;;;;;;0.57;0.17;;;42.50;41.30;;;51.52;20.32;101413.84;5008874;28;96849;-72
2021/06/16 09:18:45;;;;;;;2.00;0.32;;;42.20;41.60;;;50.90;20.49;101413.50;4998526;28;96853;-72
2021/06/16 09:21:14;;;;;;;1.45;0.60;;;41.80;41.50;;;50.49;20.85;101425.13;4992610;28;97354;-72
2021/06/16 09:23:43;;;;;;;7.60;0.57;;;41.40;42.00;;;50.27;20.79;101419.25;4989885;28;97702;-72
2021/06/16 09:26:17;;;;;;;3.03;0.52;;;41.20;42.20;;;50.22;20.81;101418.09;4996242;28;96876;-72
2021/06/16 09:28:50;;;;;;;5.18;0.63;;;41.00;42.30;;;49.99;20.70;101414.31;5010240;28;96957;-72
2021/06/16 09:31:23;;;;;;;0.40;0.40;;;40.80;42.30;;;49.71;20.67;101416.41;4989410;28;97852;-72
2021/06/16 09:33:56;;;;;;;3.83;0.30;;;40.60;42.30;;;49.52;21.13;101412.97;4993319;28;97744;-72
2021/06/16 09:36:26;;;;;;;0.20;0.20;;;40.50;42.50;;;49.45;21.26;101411.56;4992712;28;97167;-72
2021/06/16 09:38:55;;;;;;;0.63;0.25;;;40.40;42.60;;;49.21;21.68;101411.88;4993098;28;96784;-72
2021/06/16 09:41:24;;;;;;;0.57;0.40;;;40.30;42.50;;;48.58;21.84;101409.38;4993954;28;98007;-72
2021/06/16 09:43:56;;;;;;;1.77;0.22;;;40.10;42.40;;;48.02;21.94;101413.09;4995512;28;96801;-72
2021/06/16 09:46:25;;;;;;;4.97;0.70;;;39.90;42.50;;;47.52;22.41;101408.25;4992153;28;97583;-71
2021/06/16 09:48:55;;;;;;;11.32;0.60;;;39.80;42.60;;;47.07;23.24;101403.81;4996063;28;97078;-72
2021/06/16 09:51:27;;;;;;;0.08;0.08;;;39.60;42.60;;;46.49;23.52;101408.41;4987450;28;98021;-72
2021/06/16 09:54:12;;;;;;;0.10;0.10;;;39.40;42.60;;;46.13;23.69;101400.59;4993666;28;96911;-72
2021/06/16 09:56:46;;;;;;;1.17;0.28;;;39.10;42.60;;;45.74;24.28;101409.47;4991097;28;97427;-71
2021/06/16 09:59:37;;;;;;;0.35;0.35;;;39.00;42.80;;;45.36;24.52;101401.25;4989337;28;96983;-72
2021/06/16 10:02:15;;;;;;;4.80;0.73;;;38.90;42.60;;;44.93;25.19;101403.81;4976080;28;96989;-72
2021/06/16 10:04:50;;;;;;;0.95;0.65;;;38.80;42.80;;;44.37;25.95;101395.31;5006479;27;97735;-71
2021/06/16 10:07:23;;;;;;;0.38;0.28;;;38.70;42.80;;;43.91;26.18;101381.00;4990648;28;96768;-71
2021/06/16 10:10:01;;;;;;;1.95;0.98;;;38.60;42.80;;;43.58;26.10;101381.78;4994827;28;96955;-71
2021/06/16 10:12:37;;;;;;;1.50;0.35;;;38.50;42.70;;;43.12;27.32;101377.88;4988704;28;96869;-71
2021/06/16 10:15:10;;;;;;;0.20;0.20;;;38.40;42.60;;;42.79;27.00;101377.00;4993296;28;98003;-71
2021/06/16 10:17:40;;;;;;;0.40;0.20;;;38.30;42.60;;;42.46;27.22;101382.50;4989656;28;96890;-72
2021/06/16 10:20:14;;;;;;;1.55;0.30;;;38.10;42.60;;;42.29;27.78;101373.94;4990790;28;97009;-71
2021/06/16 10:22:44;;;;;;;0.68;0.55;;;38.00;42.50;;;42.00;27.54;101379.91;4989590;28;97442;-72
2021/06/16 10:25:13;;;;;;;4.75;0.63;;;37.90;42.50;;;41.69;27.89;101374.31;4974734;28;97702;-71
2021/06/16 10:27:54;;;;;;;0.30;0.30;;;37.60;42.40;;;41.35;28.30;101369.66;4990126;28;96730;-72
2021/06/16 10:30:29;;;;;;;0.43;0.38;;;37.50;42.40;;;41.00;28.33;101371.09;4990276;28;97812;-71